sensor_id;sensor_type;location;lat;lon;timestamp;P1;durP1;ratioP1;P2;durP2;ratioP2
48317;SDS011;34127;47.412;9.730;2022-09-03T00:00:28;6.03;;;3.28;;
48317;SDS011;34127;47.412;9.730;2022-09-03T00:02:59;4.90;;;3.20;;
48317;SDS011;34127;47.412;9.730;2022-09-03T00:08:09;5.07;;;2.85;;
48317;SDS011;34127;47.412;9.730;2022-09-03T00:13:04;3.90;;;2.53;;
48317;SDS011;34127;47.412;9.730;2022-09-03T00:15:32;5.88;;;2.92;;
48317;SDS011;34127;47.412;9.730;2022-09-03T00:18:07;3.67;;;2.55;;
48317;SDS011;34127;47.412;9.730;2022-09-03T00:23:02;4.45;;;2.63;;
48317;SDS011;34127;47.412;9.730;2022-09-03T00:25:34;3.42;;;2.50;;
48317;SDS011;34127;47.412;9.730;2022-09-03T00:28:03;3.60;;;2.47;;
48317;SDS011;34127;47.412;9.730;2022-09-03T00:30:30;5.80;;;2.50;;
48317;SDS011;34127;47.412;9.730;2022-09-03T00:35:31;3.80;;;2.47;;
48317;SDS011;34127;47.412;9.730;2022-09-03T00:37:58;5.05;;;2.40;;
48317;SDS011;34127;47.412;9.730;2022-09-03T00:42:55;5.82;;;2.70;;
48317;SDS011;34127;47.412;9.730;2022-09-03T00:45:33;5.88;;;2.60;;
48317;SDS011;34127;47.412;9.730;2022-09-03T00:48:05;5.28;;;2.28;;
48317;SDS011;34127;47.412;9.730;2022-09-03T00:58:28;4.80;;;2.40;;
48317;SDS011;34127;47.412;9.730;2022-09-03T01:00:56;4.95;;;2.45;;
48317;SDS011;34127;47.412;9.730;2022-09-03T01:24:02;6.50;;;2.20;;
48317;SDS011;34127;47.412;9.730;2022-09-03T01:29:06;4.90;;;2.40;;
48317;SDS011;34127;47.412;9.730;2022-09-03T01:39:28;5.40;;;2.30;;
48317;SDS011;34127;47.412;9.730;2022-09-03T01:44:49;4.38;;;2.20;;
48317;SDS011;34127;47.412;9.730;2022-09-03T01:55:30;5.25;;;2.50;;
48317;SDS011;34127;47.412;9.730;2022-09-03T01:58:15;3.90;;;2.20;;
48317;SDS011;34127;47.412;9.730;2022-09-03T02:00:42;6.00;;;2.70;;
48317;SDS011;34127;47.412;9.730;2022-09-03T02:03:09;4.25;;;2.60;;
48317;SDS011;34127;47.412;9.730;2022-09-03T02:05:36;4.18;;;2.47;;
48317;SDS011;34127;47.412;9.730;2022-09-03T02:13:12;2.90;;;1.98;;
48317;SDS011;34127;47.412;9.730;2022-09-03T02:15:41;3.55;;;2.17;;
48317;SDS011;34127;47.412;9.730;2022-09-03T02:18:12;4.15;;;2.58;;
48317;SDS011;34127;47.412;9.730;2022-09-03T02:20:39;5.00;;;2.50;;
48317;SDS011;34127;47.412;9.730;2022-09-03T02:23:06;3.30;;;2.30;;
48317;SDS011;34127;47.412;9.730;2022-09-03T02:25:34;5.45;;;2.50;;
48317;SDS011;34127;47.412;9.730;2022-09-03T02:28:02;3.50;;;2.20;;
48317;SDS011;34127;47.412;9.730;2022-09-03T02:30:29;3.10;;;2.13;;
48317;SDS011;34127;47.412;9.730;2022-09-03T02:32:55;3.72;;;2.40;;
48317;SDS011;34127;47.412;9.730;2022-09-03T02:35:21;4.18;;;2.10;;
48317;SDS011;34127;47.412;9.730;2022-09-03T02:37:47;3.53;;;2.28;;
48317;SDS011;34127;47.412;9.730;2022-09-03T02:40:14;4.05;;;2.10;;
48317;SDS011;34127;47.412;9.730;2022-09-03T02:42:41;6.45;;;2.30;;
48317;SDS011;34127;47.412;9.730;2022-09-03T02:48:05;3.85;;;2.05;;
48317;SDS011;34127;47.412;9.730;2022-09-03T02:50:39;4.18;;;2.20;;
48317;SDS011;34127;47.412;9.730;2022-09-03T02:53:05;3.22;;;2.10;;
48317;SDS011;34127;47.412;9.730;2022-09-03T02:55:31;3.50;;;2.20;;
48317;SDS011;34127;47.412;9.730;2022-09-03T02:57:57;5.75;;;2.40;;
48317;SDS011;34127;47.412;9.730;2022-09-03T03:00:24;3.47;;;2.45;;
48317;SDS011;34127;47.412;9.730;2022-09-03T03:02:53;5.38;;;2.22;;
48317;SDS011;34127;47.412;9.730;2022-09-03T03:05:24;4.70;;;2.10;;
48317;SDS011;34127;47.412;9.730;2022-09-03T03:07:51;4.20;;;2.30;;
48317;SDS011;34127;47.412;9.730;2022-09-03T03:10:17;4.07;;;2.10;;
48317;SDS011;34127;47.412;9.730;2022-09-03T03:12:43;3.60;;;2.35;;
48317;SDS011;34127;47.412;9.730;2022-09-03T03:15:09;6.32;;;2.33;;
48317;SDS011;34127;47.412;9.730;2022-09-03T03:17:35;3.60;;;2.38;;
48317;SDS011;34127;47.412;9.730;2022-09-03T03:20:02;3.65;;;2.38;;
48317;SDS011;34127;47.412;9.730;2022-09-03T03:22:28;4.93;;;2.45;;
48317;SDS011;34127;47.412;9.730;2022-09-03T03:24:54;4.00;;;2.40;;
48317;SDS011;34127;47.412;9.730;2022-09-03T03:27:21;5.70;;;2.25;;
48317;SDS011;34127;47.412;9.730;2022-09-03T03:29:48;3.75;;;2.40;;
48317;SDS011;34127;47.412;9.730;2022-09-03T03:32:14;4.15;;;2.33;;
48317;SDS011;34127;47.412;9.730;2022-09-03T03:34:41;5.60;;;2.55;;
48317;SDS011;34127;47.412;9.730;2022-09-03T03:37:07;3.95;;;2.47;;
48317;SDS011;34127;47.412;9.730;2022-09-03T03:39:33;3.92;;;2.38;;
48317;SDS011;34127;47.412;9.730;2022-09-03T03:41:59;4.32;;;2.63;;
48317;SDS011;34127;47.412;9.730;2022-09-03T03:44:25;5.97;;;2.60;;
48317;SDS011;34127;47.412;9.730;2022-09-03T03:46:51;4.72;;;2.35;;
48317;SDS011;34127;47.412;9.730;2022-09-03T03:49:17;4.82;;;2.72;;
48317;SDS011;34127;47.412;9.730;2022-09-03T03:51:43;4.22;;;2.85;;
48317;SDS011;34127;47.412;9.730;2022-09-03T03:54:09;6.70;;;2.65;;
48317;SDS011;34127;47.412;9.730;2022-09-03T03:56:35;5.40;;;2.67;;
48317;SDS011;34127;47.412;9.730;2022-09-03T03:59:02;4.88;;;2.40;;
48317;SDS011;34127;47.412;9.730;2022-09-03T04:01:28;4.93;;;2.72;;
48317;SDS011;34127;47.412;9.730;2022-09-03T04:03:55;4.15;;;2.42;;
48317;SDS011;34127;47.412;9.730;2022-09-03T04:06:21;4.90;;;2.70;;
48317;SDS011;34127;47.412;9.730;2022-09-03T04:08:47;4.00;;;2.55;;
48317;SDS011;34127;47.412;9.730;2022-09-03T04:11:15;4.53;;;2.65;;
48317;SDS011;34127;47.412;9.730;2022-09-03T04:13:42;3.97;;;2.33;;
48317;SDS011;34127;47.412;9.730;2022-09-03T04:16:09;3.80;;;2.33;;
48317;SDS011;34127;47.412;9.730;2022-09-03T04:18:36;3.75;;;2.40;;
48317;SDS011;34127;47.412;9.730;2022-09-03T04:23:35;4.35;;;2.30;;
48317;SDS011;34127;47.412;9.730;2022-09-03T04:26:02;4.15;;;2.50;;
48317;SDS011;34127;47.412;9.730;2022-09-03T04:28:28;3.67;;;2.25;;
48317;SDS011;34127;47.412;9.730;2022-09-03T04:30:59;2.90;;;1.80;;
48317;SDS011;34127;47.412;9.730;2022-09-03T04:33:25;3.55;;;2.10;;
48317;SDS011;34127;47.412;9.730;2022-09-03T04:35:51;4.45;;;2.10;;
48317;SDS011;34127;47.412;9.730;2022-09-03T04:38:17;3.15;;;1.98;;
48317;SDS011;34127;47.412;9.730;2022-09-03T04:40:50;3.13;;;1.85;;
48317;SDS011;34127;47.412;9.730;2022-09-03T04:43:16;5.10;;;1.90;;
48317;SDS011;34127;47.412;9.730;2022-09-03T04:45:42;5.95;;;2.10;;
48317;SDS011;34127;47.412;9.730;2022-09-03T04:48:08;3.00;;;1.80;;
48317;SDS011;34127;47.412;9.730;2022-09-03T04:50:35;3.47;;;1.85;;
48317;SDS011;34127;47.412;9.730;2022-09-03T04:53:04;3.60;;;1.77;;
48317;SDS011;34127;47.412;9.730;2022-09-03T04:55:34;3.05;;;2.15;;
48317;SDS011;34127;47.412;9.730;2022-09-03T04:58:00;4.65;;;1.92;;
48317;SDS011;34127;47.412;9.730;2022-09-03T05:00:26;4.15;;;1.90;;
48317;SDS011;34127;47.412;9.730;2022-09-03T05:02:53;4.97;;;1.80;;
48317;SDS011;34127;47.412;9.730;2022-09-03T05:05:19;3.30;;;1.77;;
48317;SDS011;34127;47.412;9.730;2022-09-03T05:07:45;2.47;;;1.63;;
48317;SDS011;34127;47.412;9.730;2022-09-03T05:10:12;3.75;;;2.17;;
48317;SDS011;34127;47.412;9.730;2022-09-03T05:12:44;3.50;;;2.00;;
48317;SDS011;34127;47.412;9.730;2022-09-03T05:15:12;2.58;;;1.70;;
48317;SDS011;34127;47.412;9.730;2022-09-03T05:17:38;3.70;;;1.90;;
48317;SDS011;34127;47.412;9.730;2022-09-03T05:20:04;3.38;;;1.83;;
48317;SDS011;34127;47.412;9.730;2022-09-03T05:22:34;3.70;;;1.80;;
48317;SDS011;34127;47.412;9.730;2022-09-03T05:25:00;5.47;;;1.70;;
48317;SDS011;34127;47.412;9.730;2022-09-03T05:27:26;3.65;;;1.70;;
48317;SDS011;34127;47.412;9.730;2022-09-03T05:29:52;3.42;;;1.95;;
48317;SDS011;34127;47.412;9.730;2022-09-03T05:32:18;3.75;;;1.80;;
48317;SDS011;34127;47.412;9.730;2022-09-03T05:34:44;3.38;;;1.80;;
48317;SDS011;34127;47.412;9.730;2022-09-03T05:37:10;4.30;;;2.10;;
48317;SDS011;34127;47.412;9.730;2022-09-03T05:39:37;3.97;;;1.80;;
48317;SDS011;34127;47.412;9.730;2022-09-03T05:42:03;2.60;;;1.60;;
48317;SDS011;34127;47.412;9.730;2022-09-03T05:44:29;3.90;;;1.90;;
48317;SDS011;34127;47.412;9.730;2022-09-03T05:46:55;2.72;;;1.80;;
48317;SDS011;34127;47.412;9.730;2022-09-03T05:49:22;3.28;;;1.90;;
48317;SDS011;34127;47.412;9.730;2022-09-03T05:51:48;4.45;;;1.70;;
48317;SDS011;34127;47.412;9.730;2022-09-03T05:54:14;3.92;;;1.80;;
48317;SDS011;34127;47.412;9.730;2022-09-03T05:56:40;3.72;;;1.90;;
48317;SDS011;34127;47.412;9.730;2022-09-03T05:59:07;4.13;;;1.92;;
48317;SDS011;34127;47.412;9.730;2022-09-03T06:01:37;4.18;;;2.08;;
48317;SDS011;34127;47.412;9.730;2022-09-03T06:04:05;3.55;;;2.08;;
48317;SDS011;34127;47.412;9.730;2022-09-03T06:06:32;3.10;;;1.70;;
48317;SDS011;34127;47.412;9.730;2022-09-03T06:08:59;3.65;;;1.77;;
48317;SDS011;34127;47.412;9.730;2022-09-03T06:11:26;4.72;;;2.15;;
48317;SDS011;34127;47.412;9.730;2022-09-03T06:13:57;3.72;;;2.20;;
48317;SDS011;34127;47.412;9.730;2022-09-03T06:16:27;4.53;;;2.22;;
48317;SDS011;34127;47.412;9.730;2022-09-03T06:18:53;3.85;;;1.90;;
48317;SDS011;34127;47.412;9.730;2022-09-03T06:21:20;6.00;;;2.10;;
48317;SDS011;34127;47.412;9.730;2022-09-03T06:23:50;3.90;;;2.20;;
48317;SDS011;34127;47.412;9.730;2022-09-03T06:26:17;3.47;;;2.08;;
48317;SDS011;34127;47.412;9.730;2022-09-03T06:28:44;3.28;;;1.98;;
48317;SDS011;34127;47.412;9.730;2022-09-03T06:31:12;5.93;;;2.20;;
48317;SDS011;34127;47.412;9.730;2022-09-03T06:33:39;3.85;;;1.88;;
48317;SDS011;34127;47.412;9.730;2022-09-03T06:36:07;5.07;;;2.00;;
48317;SDS011;34127;47.412;9.730;2022-09-03T06:38:34;4.80;;;1.98;;
48317;SDS011;34127;47.412;9.730;2022-09-03T06:41:01;3.50;;;2.13;;
48317;SDS011;34127;47.412;9.730;2022-09-03T06:43:31;3.83;;;2.10;;
48317;SDS011;34127;47.412;9.730;2022-09-03T06:48:24;4.05;;;1.90;;
48317;SDS011;34127;47.412;9.730;2022-09-03T06:51:01;4.38;;;1.90;;
48317;SDS011;34127;47.412;9.730;2022-09-03T06:53:29;4.55;;;2.00;;
48317;SDS011;34127;47.412;9.730;2022-09-03T06:55:56;4.10;;;1.98;;
48317;SDS011;34127;47.412;9.730;2022-09-03T06:58:24;3.60;;;1.90;;
48317;SDS011;34127;47.412;9.730;2022-09-03T07:00:50;3.15;;;1.77;;
48317;SDS011;34127;47.412;9.730;2022-09-03T07:03:18;4.15;;;1.90;;
48317;SDS011;34127;47.412;9.730;2022-09-03T07:05:44;3.88;;;1.83;;
48317;SDS011;34127;47.412;9.730;2022-09-03T07:08:10;5.32;;;1.70;;
48317;SDS011;34127;47.412;9.730;2022-09-03T07:10:36;3.40;;;2.00;;
48317;SDS011;34127;47.412;9.730;2022-09-03T07:13:03;4.45;;;1.73;;
48317;SDS011;34127;47.412;9.730;2022-09-03T07:15:31;2.80;;;1.70;;
48317;SDS011;34127;47.412;9.730;2022-09-03T07:17:57;3.25;;;1.80;;
48317;SDS011;34127;47.412;9.730;2022-09-03T07:20:23;4.15;;;1.67;;
48317;SDS011;34127;47.412;9.730;2022-09-03T07:22:49;4.75;;;2.05;;
48317;SDS011;34127;47.412;9.730;2022-09-03T07:25:15;3.08;;;1.60;;
48317;SDS011;34127;47.412;9.730;2022-09-03T07:27:42;3.22;;;1.90;;
48317;SDS011;34127;47.412;9.730;2022-09-03T07:30:09;4.60;;;1.85;;
48317;SDS011;34127;47.412;9.730;2022-09-03T07:32:35;5.68;;;2.03;;
48317;SDS011;34127;47.412;9.730;2022-09-03T07:35:05;4.18;;;1.80;;
48317;SDS011;34127;47.412;9.730;2022-09-03T07:37:31;3.80;;;1.75;;
48317;SDS011;34127;47.412;9.730;2022-09-03T07:39:57;5.05;;;1.90;;
48317;SDS011;34127;47.412;9.730;2022-09-03T07:42:24;3.42;;;2.10;;
48317;SDS011;34127;47.412;9.730;2022-09-03T07:44:53;3.55;;;1.90;;
48317;SDS011;34127;47.412;9.730;2022-09-03T07:47:19;4.43;;;1.80;;
48317;SDS011;34127;47.412;9.730;2022-09-03T07:49:45;4.03;;;1.83;;
48317;SDS011;34127;47.412;9.730;2022-09-03T07:52:12;3.63;;;1.90;;
48317;SDS011;34127;47.412;9.730;2022-09-03T07:54:38;4.55;;;2.20;;
48317;SDS011;34127;47.412;9.730;2022-09-03T07:57:05;5.22;;;2.50;;
48317;SDS011;34127;47.412;9.730;2022-09-03T07:59:31;3.45;;;1.95;;
48317;SDS011;34127;47.412;9.730;2022-09-03T08:01:57;6.32;;;2.30;;
48317;SDS011;34127;47.412;9.730;2022-09-03T08:04:24;3.55;;;2.17;;
48317;SDS011;34127;47.412;9.730;2022-09-03T08:06:50;3.95;;;2.00;;
48317;SDS011;34127;47.412;9.730;2022-09-03T08:09:19;5.18;;;2.00;;
48317;SDS011;34127;47.412;9.730;2022-09-03T08:11:45;3.65;;;1.90;;
48317;SDS011;34127;47.412;9.730;2022-09-03T08:14:12;2.85;;;1.60;;
48317;SDS011;34127;47.412;9.730;2022-09-03T08:16:39;3.05;;;1.80;;
48317;SDS011;34127;47.412;9.730;2022-09-03T08:19:06;2.72;;;1.60;;
48317;SDS011;34127;47.412;9.730;2022-09-03T08:21:33;3.83;;;1.50;;
48317;SDS011;34127;47.412;9.730;2022-09-03T08:23:59;3.15;;;1.50;;
48317;SDS011;34127;47.412;9.730;2022-09-03T08:26:38;3.22;;;1.65;;
48317;SDS011;34127;47.412;9.730;2022-09-03T08:29:06;2.83;;;1.55;;
48317;SDS011;34127;47.412;9.730;2022-09-03T08:31:32;3.42;;;1.60;;
48317;SDS011;34127;47.412;9.730;2022-09-03T08:34:00;3.40;;;1.60;;
48317;SDS011;34127;47.412;9.730;2022-09-03T08:36:29;2.90;;;2.00;;
48317;SDS011;34127;47.412;9.730;2022-09-03T08:38:57;3.90;;;1.60;;
48317;SDS011;34127;47.412;9.730;2022-09-03T08:46:20;3.22;;;1.65;;
48317;SDS011;34127;47.412;9.730;2022-09-03T08:48:49;2.40;;;1.50;;
48317;SDS011;34127;47.412;9.730;2022-09-03T08:51:17;3.42;;;1.58;;
48317;SDS011;34127;47.412;9.730;2022-09-03T08:53:46;3.90;;;1.60;;
48317;SDS011;34127;47.412;9.730;2022-09-03T08:56:17;3.08;;;1.65;;
48317;SDS011;34127;47.412;9.730;2022-09-03T08:58:46;3.80;;;1.70;;
48317;SDS011;34127;47.412;9.730;2022-09-03T09:01:24;4.38;;;1.70;;
48317;SDS011;34127;47.412;9.730;2022-09-03T09:06:35;4.38;;;1.60;;
48317;SDS011;34127;47.412;9.730;2022-09-03T09:11:36;3.40;;;1.60;;
48317;SDS011;34127;47.412;9.730;2022-09-03T09:14:15;3.95;;;1.60;;
48317;SDS011;34127;47.412;9.730;2022-09-03T09:19:17;3.47;;;1.60;;
48317;SDS011;34127;47.412;9.730;2022-09-03T09:21:47;3.50;;;1.70;;
48317;SDS011;34127;47.412;9.730;2022-09-03T09:24:20;3.50;;;1.63;;
48317;SDS011;34127;47.412;9.730;2022-09-03T09:26:47;2.53;;;1.58;;
48317;SDS011;34127;47.412;9.730;2022-09-03T09:29:14;2.92;;;1.80;;
48317;SDS011;34127;47.412;9.730;2022-09-03T09:31:40;3.97;;;1.70;;
48317;SDS011;34127;47.412;9.730;2022-09-03T09:34:09;4.45;;;1.85;;
48317;SDS011;34127;47.412;9.730;2022-09-03T09:36:47;2.72;;;1.73;;
48317;SDS011;34127;47.412;9.730;2022-09-03T09:39:13;4.57;;;1.60;;
48317;SDS011;34127;47.412;9.730;2022-09-03T09:41:40;2.88;;;1.67;;
48317;SDS011;34127;47.412;9.730;2022-09-03T09:44:07;4.13;;;1.90;;
48317;SDS011;34127;47.412;9.730;2022-09-03T09:46:34;5.57;;;2.10;;
48317;SDS011;34127;47.412;9.730;2022-09-03T09:49:01;3.33;;;1.80;;
48317;SDS011;34127;47.412;9.730;2022-09-03T09:51:28;3.42;;;1.70;;
48317;SDS011;34127;47.412;9.730;2022-09-03T09:54:01;4.80;;;1.92;;
48317;SDS011;34127;47.412;9.730;2022-09-03T09:56:28;3.75;;;1.77;;
48317;SDS011;34127;47.412;9.730;2022-09-03T09:59:04;4.28;;;1.75;;
48317;SDS011;34127;47.412;9.730;2022-09-03T10:01:30;4.07;;;1.70;;
48317;SDS011;34127;47.412;9.730;2022-09-03T10:03:58;3.08;;;1.88;;
48317;SDS011;34127;47.412;9.730;2022-09-03T10:06:26;4.60;;;1.80;;
48317;SDS011;34127;47.412;9.730;2022-09-03T10:09:14;4.18;;;1.80;;
48317;SDS011;34127;47.412;9.730;2022-09-03T10:11:45;3.53;;;1.67;;
48317;SDS011;34127;47.412;9.730;2022-09-03T10:14:26;2.75;;;1.55;;
48317;SDS011;34127;47.412;9.730;2022-09-03T10:17:04;5.75;;;2.38;;
48317;SDS011;34127;47.412;9.730;2022-09-03T10:22:38;3.72;;;2.00;;
48317;SDS011;34127;47.412;9.730;2022-09-03T10:25:06;4.40;;;1.65;;
48317;SDS011;34127;47.412;9.730;2022-09-03T10:27:33;3.05;;;1.60;;
48317;SDS011;34127;47.412;9.730;2022-09-03T10:30:01;3.65;;;2.17;;
48317;SDS011;34127;47.412;9.730;2022-09-03T10:43:10;2.83;;;1.50;;
48317;SDS011;34127;47.412;9.730;2022-09-03T10:45:46;2.75;;;1.90;;
48317;SDS011;34127;47.412;9.730;2022-09-03T10:51:05;2.78;;;1.70;;
48317;SDS011;34127;47.412;9.730;2022-09-03T10:56:06;2.75;;;1.58;;
48317;SDS011;34127;47.412;9.730;2022-09-03T11:01:09;5.18;;;1.50;;
48317;SDS011;34127;47.412;9.730;2022-09-03T11:06:11;2.63;;;1.70;;
48317;SDS011;34127;47.412;9.730;2022-09-03T11:08:47;2.95;;;1.50;;
48317;SDS011;34127;47.412;9.730;2022-09-03T11:11:18;3.72;;;1.95;;
48317;SDS011;34127;47.412;9.730;2022-09-03T11:13:50;3.13;;;1.70;;
48317;SDS011;34127;47.412;9.730;2022-09-03T11:16:19;3.38;;;1.70;;
48317;SDS011;34127;47.412;9.730;2022-09-03T11:18:59;3.10;;;1.90;;
48317;SDS011;34127;47.412;9.730;2022-09-03T11:21:27;4.22;;;2.00;;
48317;SDS011;34127;47.412;9.730;2022-09-03T11:24:06;2.80;;;1.90;;
48317;SDS011;34127;47.412;9.730;2022-09-03T11:26:34;4.45;;;2.15;;
48317;SDS011;34127;47.412;9.730;2022-09-03T11:34:46;3.67;;;2.35;;
48317;SDS011;34127;47.412;9.730;2022-09-03T11:36:47;3.45;;;2.30;;
48317;SDS011;34127;47.412;9.730;2022-09-03T11:39:19;4.07;;;2.70;;
48317;SDS011;34127;47.412;9.730;2022-09-03T11:44:36;7.07;;;3.30;;
48317;SDS011;34127;47.412;9.730;2022-09-03T11:47:12;11.75;;;3.60;;
48317;SDS011;34127;47.412;9.730;2022-09-03T11:49:43;11.70;;;3.80;;
48317;SDS011;34127;47.412;9.730;2022-09-03T11:52:10;13.70;;;3.50;;
48317;SDS011;34127;47.412;9.730;2022-09-03T11:54:44;4.35;;;2.20;;
48317;SDS011;34127;47.412;9.730;2022-09-03T11:59:37;6.50;;;2.40;;
48317;SDS011;34127;47.412;9.730;2022-09-03T12:04:41;7.65;;;2.97;;
48317;SDS011;34127;47.412;9.730;2022-09-03T12:17:06;7.22;;;2.90;;
48317;SDS011;34127;47.412;9.730;2022-09-03T12:19:48;4.88;;;2.50;;
48317;SDS011;34127;47.412;9.730;2022-09-03T12:22:16;4.68;;;2.60;;
48317;SDS011;34127;47.412;9.730;2022-09-03T12:24:43;9.02;;;2.85;;
48317;SDS011;34127;47.412;9.730;2022-09-03T12:27:10;6.32;;;2.78;;
48317;SDS011;34127;47.412;9.730;2022-09-03T12:29:37;3.75;;;2.63;;
48317;SDS011;34127;47.412;9.730;2022-09-03T12:32:08;5.20;;;2.50;;
48317;SDS011;34127;47.412;9.730;2022-09-03T12:34:36;4.72;;;2.50;;
48317;SDS011;34127;47.412;9.730;2022-09-03T12:37:02;6.53;;;2.60;;
48317;SDS011;34127;47.412;9.730;2022-09-03T12:39:28;6.45;;;2.63;;
48317;SDS011;34127;47.412;9.730;2022-09-03T12:42:02;5.25;;;2.80;;
48317;SDS011;34127;47.412;9.730;2022-09-03T12:44:37;5.05;;;2.50;;
48317;SDS011;34127;47.412;9.730;2022-09-03T12:47:06;4.97;;;2.25;;
48317;SDS011;34127;47.412;9.730;2022-09-03T12:49:42;3.95;;;2.20;;
48317;SDS011;34127;47.412;9.730;2022-09-03T12:54:36;4.60;;;2.70;;
48317;SDS011;34127;47.412;9.730;2022-09-03T12:57:03;4.53;;;2.30;;
48317;SDS011;34127;47.412;9.730;2022-09-03T12:59:31;4.13;;;2.40;;
48317;SDS011;34127;47.412;9.730;2022-09-03T13:01:59;5.03;;;2.50;;
48317;SDS011;34127;47.412;9.730;2022-09-03T13:04:27;3.80;;;1.90;;
48317;SDS011;34127;47.412;9.730;2022-09-03T13:09:29;3.40;;;1.80;;
48317;SDS011;34127;47.412;9.730;2022-09-03T13:11:56;5.30;;;1.92;;
48317;SDS011;34127;47.412;9.730;2022-09-03T13:14:29;3.63;;;1.50;;
48317;SDS011;34127;47.412;9.730;2022-09-03T13:19:42;3.58;;;1.50;;
48317;SDS011;34127;47.412;9.730;2022-09-03T13:35:32;2.70;;;1.60;;
48317;SDS011;34127;47.412;9.730;2022-09-03T13:40:45;4.85;;;1.70;;
48317;SDS011;34127;47.412;9.730;2022-09-03T13:45:56;4.15;;;1.50;;
48317;SDS011;34127;47.412;9.730;2022-09-03T13:48:31;2.97;;;1.50;;
48317;SDS011;34127;47.412;9.730;2022-09-03T13:51:21;2.97;;;1.80;;
48317;SDS011;34127;47.412;9.730;2022-09-03T13:56:17;3.53;;;1.80;;
48317;SDS011;34127;47.412;9.730;2022-09-03T13:59:03;3.20;;;1.65;;
48317;SDS011;34127;47.412;9.730;2022-09-03T14:04:20;3.78;;;1.70;;
48317;SDS011;34127;47.412;9.730;2022-09-03T14:07:01;4.60;;;1.77;;
48317;SDS011;34127;47.412;9.730;2022-09-03T14:14:40;3.50;;;1.70;;
48317;SDS011;34127;47.412;9.730;2022-09-03T14:19:59;3.17;;;1.50;;
48317;SDS011;34127;47.412;9.730;2022-09-03T14:27:27;2.80;;;1.60;;
48317;SDS011;34127;47.412;9.730;2022-09-03T14:29:58;2.70;;;1.50;;
48317;SDS011;34127;47.412;9.730;2022-09-03T14:32:48;3.45;;;1.55;;
48317;SDS011;34127;47.412;9.730;2022-09-03T14:38:07;3.33;;;1.40;;
48317;SDS011;34127;47.412;9.730;2022-09-03T14:40:46;2.75;;;1.60;;
48317;SDS011;34127;47.412;9.730;2022-09-03T14:53:47;2.90;;;1.60;;
48317;SDS011;34127;47.412;9.730;2022-09-03T15:01:34;4.75;;;1.90;;
48317;SDS011;34127;47.412;9.730;2022-09-03T15:11:47;3.45;;;2.30;;
48317;SDS011;34127;47.412;9.730;2022-09-03T15:14:16;3.75;;;2.00;;
48317;SDS011;34127;47.412;9.730;2022-09-03T15:16:51;3.67;;;1.83;;
48317;SDS011;34127;47.412;9.730;2022-09-03T15:30:07;2.80;;;1.70;;
48317;SDS011;34127;47.412;9.730;2022-09-03T15:32:55;3.67;;;2.00;;
48317;SDS011;34127;47.412;9.730;2022-09-03T15:35:36;3.38;;;1.67;;
48317;SDS011;34127;47.412;9.730;2022-09-03T15:38:09;2.75;;;1.60;;
48317;SDS011;34127;47.412;9.730;2022-09-03T15:40:46;2.88;;;1.77;;
48317;SDS011;34127;47.412;9.730;2022-09-03T15:43:24;3.55;;;1.88;;
48317;SDS011;34127;47.412;9.730;2022-09-03T15:46:26;3.25;;;1.75;;
48317;SDS011;34127;47.412;9.730;2022-09-03T15:51:30;3.55;;;1.77;;
48317;SDS011;34127;47.412;9.730;2022-09-03T15:54:06;3.10;;;1.65;;
48317;SDS011;34127;47.412;9.730;2022-09-03T16:02:02;3.33;;;1.90;;
48317;SDS011;34127;47.412;9.730;2022-09-03T16:09:52;5.13;;;3.15;;
48317;SDS011;34127;47.412;9.730;2022-09-03T16:14:54;5.90;;;3.50;;
48317;SDS011;34127;47.412;9.730;2022-09-03T16:25:06;9.57;;;6.45;;
48317;SDS011;34127;47.412;9.730;2022-09-03T16:27:37;2.50;;;1.60;;
48317;SDS011;34127;47.412;9.730;2022-09-03T16:30:09;2.40;;;1.55;;
48317;SDS011;34127;47.412;9.730;2022-09-03T16:33:00;3.13;;;2.00;;
48317;SDS011;34127;47.412;9.730;2022-09-03T16:35:25;3.00;;;1.70;;
48317;SDS011;34127;47.412;9.730;2022-09-03T16:37:58;2.90;;;1.70;;
48317;SDS011;34127;47.412;9.730;2022-09-03T16:50:42;2.70;;;1.52;;
48317;SDS011;34127;47.412;9.730;2022-09-03T17:11:31;5.95;;;2.90;;
48317;SDS011;34127;47.412;9.730;2022-09-03T17:14:11;4.13;;;2.40;;
48317;SDS011;34127;47.412;9.730;2022-09-03T17:19:27;3.70;;;1.83;;
48317;SDS011;34127;47.412;9.730;2022-09-03T17:22:06;3.92;;;1.90;;
48317;SDS011;34127;47.412;9.730;2022-09-03T17:24:41;3.28;;;1.80;;
48317;SDS011;34127;47.412;9.730;2022-09-03T17:32:38;3.92;;;1.88;;
48317;SDS011;34127;47.412;9.730;2022-09-03T17:35:16;2.97;;;1.85;;
48317;SDS011;34127;47.412;9.730;2022-09-03T17:40:19;4.57;;;1.90;;
48317;SDS011;34127;47.412;9.730;2022-09-03T17:50:25;5.55;;;2.25;;
48317;SDS011;34127;47.412;9.730;2022-09-03T17:53:02;4.32;;;2.20;;
48317;SDS011;34127;47.412;9.730;2022-09-03T17:55:35;2.78;;;1.95;;
48317;SDS011;34127;47.412;9.730;2022-09-03T18:03:29;3.97;;;2.30;;
48317;SDS011;34127;47.412;9.730;2022-09-03T18:05:59;3.30;;;1.95;;
48317;SDS011;34127;47.412;9.730;2022-09-03T18:11:17;2.60;;;1.80;;
48317;SDS011;34127;47.412;9.730;2022-09-03T18:13:54;4.50;;;2.50;;
48317;SDS011;34127;47.412;9.730;2022-09-03T18:16:25;6.57;;;2.10;;
48317;SDS011;34127;47.412;9.730;2022-09-03T18:18:52;4.97;;;2.30;;
48317;SDS011;34127;47.412;9.730;2022-09-03T18:21:24;5.18;;;2.33;;
48317;SDS011;34127;47.412;9.730;2022-09-03T18:24:16;5.53;;;2.10;;
48317;SDS011;34127;47.412;9.730;2022-09-03T18:32:43;3.70;;;2.20;;
48317;SDS011;34127;47.412;9.730;2022-09-03T18:35:29;6.13;;;2.10;;
48317;SDS011;34127;47.412;9.730;2022-09-03T18:38:16;5.10;;;2.20;;
48317;SDS011;34127;47.412;9.730;2022-09-03T18:41:05;4.18;;;2.40;;
48317;SDS011;34127;47.412;9.730;2022-09-03T18:49:45;3.85;;;2.00;;
48317;SDS011;34127;47.412;9.730;2022-09-03T19:01:37;3.88;;;2.00;;
48317;SDS011;34127;47.412;9.730;2022-09-03T19:07:22;4.15;;;1.90;;
48317;SDS011;34127;47.412;9.730;2022-09-03T19:10:16;3.45;;;1.70;;
48317;SDS011;34127;47.412;9.730;2022-09-03T19:18:57;5.55;;;2.03;;
48317;SDS011;34127;47.412;9.730;2022-09-03T19:21:49;3.90;;;2.03;;
48317;SDS011;34127;47.412;9.730;2022-09-03T19:24:36;3.83;;;2.17;;
48317;SDS011;34127;47.412;9.730;2022-09-03T19:27:31;4.88;;;2.20;;
48317;SDS011;34127;47.412;9.730;2022-09-03T19:30:20;4.60;;;2.63;;
48317;SDS011;34127;47.412;9.730;2022-09-03T19:41:43;4.65;;;2.60;;
48317;SDS011;34127;47.412;9.730;2022-09-03T19:47:21;4.40;;;1.98;;
48317;SDS011;34127;47.412;9.730;2022-09-03T19:50:32;3.58;;;2.03;;
48317;SDS011;34127;47.412;9.730;2022-09-03T19:53:16;2.65;;;1.77;;
48317;SDS011;34127;47.412;9.730;2022-09-03T19:56:06;3.05;;;1.70;;
48317;SDS011;34127;47.412;9.730;2022-09-03T19:58:59;3.17;;;1.98;;
48317;SDS011;34127;47.412;9.730;2022-09-03T20:01:45;3.13;;;2.03;;
48317;SDS011;34127;47.412;9.730;2022-09-03T20:05:17;3.20;;;2.00;;
48317;SDS011;34127;47.412;9.730;2022-09-03T20:07:35;3.78;;;2.10;;
48317;SDS011;34127;47.412;9.730;2022-09-03T20:10:21;4.82;;;2.67;;
48317;SDS011;34127;47.412;9.730;2022-09-03T20:13:00;3.80;;;2.20;;
48317;SDS011;34127;47.412;9.730;2022-09-03T20:26:03;4.25;;;2.85;;
48317;SDS011;34127;47.412;9.730;2022-09-03T20:28:44;5.55;;;2.90;;
48317;SDS011;34127;47.412;9.730;2022-09-03T20:31:24;4.38;;;2.58;;
48317;SDS011;34127;47.412;9.730;2022-09-03T20:39:27;3.88;;;2.08;;
48317;SDS011;34127;47.412;9.730;2022-09-03T20:47:50;3.50;;;2.05;;
48317;SDS011;34127;47.412;9.730;2022-09-03T20:52:35;4.78;;;1.98;;
48317;SDS011;34127;47.412;9.730;2022-09-03T20:55:19;4.82;;;2.17;;
48317;SDS011;34127;47.412;9.730;2022-09-03T20:58:04;3.58;;;2.00;;
48317;SDS011;34127;47.412;9.730;2022-09-03T21:03:03;5.80;;;2.17;;
48317;SDS011;34127;47.412;9.730;2022-09-03T21:05:33;3.30;;;2.05;;
48317;SDS011;34127;47.412;9.730;2022-09-03T21:10:54;3.70;;;1.90;;
48317;SDS011;34127;47.412;9.730;2022-09-03T21:13:37;4.45;;;1.95;;
48317;SDS011;34127;47.412;9.730;2022-09-03T21:21:23;4.25;;;2.60;;